Terminal Aerodrome Forecast
Issued by NWS

Home | Current Version | Previous Version | Text Only | Print | Product List | Glossary On
Versions: 1 2 3 4 5 6 7 8 9 10 11 12
000
FTUS46 KMTR 221129
TAFSJC
TAF
KSJC 221129Z 2212/2312 VRB04KT P6SM SKC
     FM222000 31008KT P6SM SKC
     FM222300 30012KT P6SM SKC
     FM230400 31006KT P6SM SKC
     FM230800 VRB04KT P6SM SKC=

USA.gov is the U.S. government's official web portal to all federal, state and local government web resources and services.